Time;durP1;ratioP1;P1;durP2;ratioP2;P2;SDS_P1;SDS_P2;PMS_P1;PMS_P2;Temp;Humidity;BMP_temperature;BMP_pressure;BME280_temperature;BME280_humidity;BME280_pressure;Samples;Min_cycle;Max_cycle;Signal;HPM_P1;HPM_P2
2022/09/21 00:00:39;;;;;;;1.98;1.20;;;10.20;99.90;;;;;;5121104;28;20019;-77
2022/09/21 00:03:05;;;;;;;2.08;1.40;;;10.30;99.90;;;;;;5120795;28;20023;-77
2022/09/21 00:05:32;;;;;;;1.67;1.25;;;10.30;99.90;;;;;;5117927;28;20081;-77
2022/09/21 00:08:03;;;;;;;1.98;1.40;;;10.30;99.90;;;;;;5116975;28;20031;-77
2022/09/21 00:10:29;;;;;;;5.55;1.48;;;10.30;99.90;;;;;;5117274;28;20034;-79
2022/09/21 00:12:56;;;;;;;7.82;1.52;;;10.40;99.90;;;;;;5118499;28;20035;-77
2022/09/21 00:15:23;;;;;;;4.35;1.90;;;10.40;99.90;;;;;;5120125;28;20024;-79
2022/09/21 00:17:52;;;;;;;3.15;1.60;;;10.40;99.90;;;;;;5118483;28;20019;-77
2022/09/21 00:20:20;;;;;;;2.47;1.38;;;10.40;99.90;;;;;;5098978;28;20027;-77
2022/09/21 00:22:46;;;;;;;3.17;1.70;;;10.50;99.90;;;;;;5098365;28;20085;-78
2022/09/21 00:25:13;;;;;;;3.65;1.55;;;10.50;99.90;;;;;;5082953;28;20123;-77
2022/09/21 00:27:38;;;;;;;7.65;1.88;;;10.50;99.90;;;;;;5118329;28;20020;-78
2022/09/21 00:30:05;;;;;;;2.80;1.63;;;10.40;99.90;;;;;;5098658;28;20023;-79
2022/09/21 00:32:33;;;;;;;3.75;1.58;;;10.50;99.90;;;;;;5117464;28;20027;-78
2022/09/21 00:34:59;;;;;;;4.55;1.80;;;10.40;99.90;;;;;;5099378;28;20072;-78
2022/09/21 00:37:26;;;;;;;3.10;1.50;;;10.50;99.90;;;;;;5116617;28;20035;-77
2022/09/21 00:39:52;;;;;;;2.17;1.50;;;10.50;99.90;;;;;;5115969;28;20437;-76
2022/09/21 00:42:19;;;;;;;4.10;1.80;;;10.50;99.90;;;;;;5099734;28;20028;-77
2022/09/21 00:44:45;;;;;;;5.88;1.55;;;10.50;99.90;;;;;;5118526;28;20510;-79
2022/09/21 00:47:14;;;;;;;1.50;1.40;;;10.50;99.90;;;;;;5118611;28;20031;-78
2022/09/21 00:49:42;;;;;;;2.90;1.40;;;10.50;99.90;;;;;;5117574;28;20023;-79
2022/09/21 00:52:10;;;;;;;6.82;1.90;;;10.50;99.90;;;;;;5120730;28;20049;-79
2022/09/21 00:54:45;;;;;;;7.07;1.75;;;10.50;99.90;;;;;;5104860;28;20027;-78
2022/09/21 00:57:13;;;;;;;;;;;10.50;99.90;;;;;;5129188;28;20020;-76
2022/09/21 00:59:39;;;;;;;3.28;1.70;;;10.50;99.90;;;;;;5138165;27;19975;-78
2022/09/21 01:02:05;;;;;;;2.80;1.52;;;10.50;99.90;;;;;;5137987;28;20019;-76
2022/09/21 01:04:31;;;;;;;3.38;1.73;;;10.50;99.90;;;;;;5138097;27;20091;-76
2022/09/21 01:07:01;;;;;;;2.60;1.42;;;10.50;99.90;;;;;;5137406;27;20083;-76
2022/09/21 01:09:27;;;;;;;2.25;1.52;;;10.40;99.90;;;;;;5131206;28;20028;-76
2022/09/21 01:12:28;;;;;;;6.20;1.88;;;10.40;99.90;;;;;;5116292;28;20055;-77
2022/09/21 01:15:35;;;;;;;3.08;1.80;;;10.40;99.90;;;;;;5059827;28;20031;-76
2022/09/21 01:18:15;;;;;;;6.28;1.77;;;10.40;99.90;;;;;;5080289;28;20042;-78
2022/09/21 01:21:11;;;;;;;2.08;1.50;;;10.30;99.90;;;;;;5100936;28;20368;-76
2022/09/21 01:23:43;;;;;;;2.30;1.80;;;10.30;99.90;;;;;;5104728;28;20024;-77
2022/09/21 01:26:38;;;;;;;5.28;1.55;;;10.30;99.90;;;;;;5078611;28;20032;-78
2022/09/21 01:29:27;;;;;;;3.78;1.55;;;10.30;99.90;;;;;;5068680;28;20353;-77
2022/09/21 01:32:01;;;;;;;3.00;1.60;;;10.30;99.90;;;;;;5109439;28;20020;-78
2022/09/21 01:34:29;;;;;;;3.77;1.80;;;10.30;99.90;;;;;;5116055;28;20073;-78
2022/09/21 01:36:57;;;;;;;3.38;1.40;;;10.30;99.90;;;;;;5118746;28;20551;-77
2022/09/21 01:39:25;;;;;;;3.70;1.52;;;10.30;99.90;;;;;;5116561;28;20063;-78
2022/09/21 01:41:53;;;;;;;2.72;1.60;;;10.40;99.90;;;;;;5114287;28;20104;-77
2022/09/21 01:44:23;;;;;;;4.28;1.60;;;10.40;99.90;;;;;;5114536;28;20051;-79
2022/09/21 01:46:50;;;;;;;2.45;1.67;;;10.40;99.90;;;;;;5114495;28;20028;-78
2022/09/21 01:49:25;;;;;;;2.13;1.35;;;10.40;99.90;;;;;;5096592;28;20039;-77
2022/09/21 01:52:00;;;;;;;2.47;1.60;;;10.40;99.90;;;;;;5114403;28;20035;-79
2022/09/21 01:54:40;;;;;;;3.45;1.60;;;10.40;99.90;;;;;;5115859;28;20026;-78
2022/09/21 01:57:21;;;;;;;3.55;1.80;;;10.40;99.90;;;;;;5118825;28;20027;-78
2022/09/21 01:59:56;;;;;;;3.78;1.73;;;10.40;99.90;;;;;;5116740;28;20024;-77
2022/09/21 02:02:45;;;;;;;1.88;1.30;;;10.40;99.90;;;;;;5117401;28;20027;-78
2022/09/21 02:05:15;;;;;;;4.50;1.63;;;10.30;99.90;;;;;;5118774;28;20049;-77
2022/09/21 02:07:41;;;;;;;3.80;1.60;;;10.40;99.90;;;;;;5103443;28;20024;-78
2022/09/21 02:10:12;;;;;;;2.28;1.70;;;10.40;99.90;;;;;;5096583;28;20031;-79
2022/09/21 02:12:39;;;;;;;2.78;1.65;;;10.40;99.90;;;;;;5113988;28;20023;-77
2022/09/21 02:15:05;;;;;;;2.60;1.60;;;10.40;99.90;;;;;;5113848;28;20032;-79
2022/09/21 02:17:53;;;;;;;2.17;1.50;;;10.40;99.90;;;;;;5095890;28;20037;-78
2022/09/21 02:20:26;;;;;;;2.33;1.83;;;10.40;99.90;;;;;;5095395;28;20507;-75
2022/09/21 02:23:21;;;;;;;3.50;1.63;;;10.40;99.90;;;;;;5114489;28;20037;-75
2022/09/21 02:26:09;;;;;;;1.83;1.35;;;10.40;99.90;;;;;;5115616;28;20054;-79
2022/09/21 02:28:54;;;;;;;2.63;1.30;;;10.40;99.90;;;;;;5118161;28;20026;-78
2022/09/21 02:31:38;;;;;;;3.20;1.20;;;10.40;99.90;;;;;;5101227;28;20027;-75
2022/09/21 02:34:14;;;;;;;1.75;1.42;;;10.40;99.90;;;;;;5100763;28;20094;-77
2022/09/21 02:36:51;;;;;;;4.20;1.83;;;10.40;99.90;;;;;;5118329;28;20387;-76
2022/09/21 02:39:22;;;;;;;2.35;1.60;;;10.40;99.90;;;;;;5117435;28;20054;-77
2022/09/21 02:42:03;;;;;;;3.17;1.98;;;10.40;99.90;;;;;;5116550;28;20034;-76
2022/09/21 02:44:40;;;;;;;4.43;1.70;;;10.40;99.90;;;;;;5096732;28;20211;-77
2022/09/21 02:47:30;;;;;;;2.55;1.95;;;10.40;99.90;;;;;;5118192;28;20076;-77
2022/09/21 02:50:03;;;;;;;7.70;2.40;;;10.40;99.90;;;;;;5118913;28;20120;-79
2022/09/21 02:52:31;;;;;;;2.58;1.80;;;10.40;99.90;;;;;;5116550;28;20483;-77
2022/09/21 02:54:58;;;;;;;2.67;1.50;;;10.30;99.90;;;;;;5116886;28;20030;-79
2022/09/21 02:57:25;;;;;;;4.97;1.85;;;10.30;99.90;;;;;;5115894;28;20091;-78
2022/09/21 02:59:51;;;;;;;5.00;1.80;;;10.30;99.90;;;;;;5113643;28;20020;-79
2022/09/21 03:02:17;;;;;;;2.20;1.58;;;10.30;99.90;;;;;;5114529;28;20030;-76
2022/09/21 03:04:48;;;;;;;3.78;1.90;;;10.30;99.90;;;;;;5104959;28;20055;-77
2022/09/21 03:07:15;;;;;;;3.55;1.83;;;10.30;99.90;;;;;;5105043;28;20122;-76
2022/09/21 03:09:41;;;;;;;4.05;1.60;;;10.30;99.90;;;;;;5124716;28;20098;-77
2022/09/21 03:12:07;;;;;;;5.05;1.85;;;10.30;99.90;;;;;;5121778;28;20032;-77
2022/09/21 03:14:33;;;;;;;7.00;1.92;;;10.30;99.90;;;;;;5115000;28;20476;-77
2022/09/21 03:16:59;;;;;;;4.47;1.65;;;10.30;99.90;;;;;;5117693;28;20394;-78
2022/09/21 03:19:25;;;;;;;3.03;1.42;;;10.20;99.90;;;;;;5113776;28;20031;-77
2022/09/21 03:21:52;;;;;;;2.65;1.60;;;10.20;99.90;;;;;;5117846;28;20073;-77
2022/09/21 03:24:44;;;;;;;3.03;1.90;;;10.20;99.90;;;;;;5121272;28;20035;-77
2022/09/21 03:27:04;;;;;;;2.90;2.05;;;10.20;99.90;;;;;;5124302;28;20031;-77
2022/09/21 03:29:29;;;;;;;4.13;1.80;;;10.10;99.90;;;;;;5121326;28;20020;-77
2022/09/21 03:31:55;;;;;;;2.03;1.40;;;10.10;99.90;;;;;;5119855;28;20096;-77
2022/09/21 03:34:21;;;;;;;2.95;1.80;;;10.10;99.90;;;;;;5120468;28;20016;-76
2022/09/21 03:36:47;;;;;;;4.22;1.60;;;10.10;99.90;;;;;;5119455;28;20057;-77
2022/09/21 03:39:13;;;;;;;4.82;1.80;;;10.10;99.90;;;;;;5101394;28;20023;-77
2022/09/21 03:41:39;;;;;;;3.97;1.70;;;10.10;99.90;;;;;;5122280;28;20080;-76
2022/09/21 03:44:05;;;;;;;4.47;1.77;;;10.10;99.90;;;;;;5121992;28;20491;-78
2022/09/21 03:46:34;;;;;;;7.38;1.63;;;10.10;99.90;;;;;;5116203;28;20080;-79
2022/09/21 03:49:01;;;;;;;4.53;1.95;;;10.00;99.90;;;;;;5089417;28;20024;-75
2022/09/21 03:51:30;;;;;;;5.07;1.90;;;10.00;99.90;;;;;;5112344;28;20031;-77
2022/09/21 03:53:56;;;;;;;4.57;1.95;;;10.00;99.90;;;;;;5094438;28;20162;-76
2022/09/21 03:56:22;;;;;;;6.57;1.92;;;10.00;99.90;;;;;;5112020;28;20083;-77
2022/09/21 03:58:48;;;;;;;3.58;2.03;;;9.90;99.90;;;;;;5112672;28;20026;-78
2022/09/21 04:01:14;;;;;;;4.50;2.05;;;9.80;99.90;;;;;;5113658;28;20027;-77
2022/09/21 04:03:40;;;;;;;5.65;2.25;;;9.80;99.90;;;;;;5109457;28;20019;-81
2022/09/21 04:06:11;;;;;;;6.90;2.35;;;9.80;99.90;;;;;;5112487;28;20115;-77
2022/09/21 04:08:37;;;;;;;3.15;2.08;;;9.80;99.90;;;;;;5114695;28;20054;-76
2022/09/21 04:11:17;;;;;;;4.72;2.13;;;9.70;99.90;;;;;;5110018;28;20021;-78
2022/09/21 04:13:47;;;;;;;6.00;2.45;;;9.70;99.90;;;;;;5110723;28;20135;-79
2022/09/21 04:16:13;;;;;;;5.82;1.92;;;9.80;99.90;;;;;;5111032;28;20044;-78
2022/09/21 04:18:39;;;;;;;4.45;2.20;;;9.70;99.90;;;;;;5111935;28;20043;-77
2022/09/21 04:21:05;;;;;;;5.57;2.17;;;9.60;99.90;;;;;;5092850;28;20035;-78
2022/09/21 04:23:31;;;;;;;4.85;2.60;;;9.60;99.90;;;;;;5094438;28;20024;-77
2022/09/21 04:25:58;;;;;;;3.53;2.35;;;9.60;99.90;;;;;;5094368;28;20032;-76
2022/09/21 04:28:24;;;;;;;4.32;2.30;;;9.60;99.90;;;;;;5092582;28;20027;-77
2022/09/21 04:30:53;;;;;;;2.63;1.90;;;9.50;99.90;;;;;;5094578;28;20422;-77
2022/09/21 04:33:19;;;;;;;3.60;2.50;;;9.50;99.90;;;;;;5097241;28;20089;-78
2022/09/21 04:35:45;;;;;;;3.13;1.98;;;9.50;99.90;;;;;;5113875;28;20035;-77
2022/09/21 04:38:12;;;;;;;5.10;2.67;;;9.40;99.90;;;;;;5094757;28;20038;-81
2022/09/21 04:40:38;;;;;;;4.88;2.80;;;9.40;99.90;;;;;;5109835;28;20028;-77
2022/09/21 04:43:04;;;;;;;7.53;2.90;;;9.40;99.90;;;;;;5112998;28;20149;-78
2022/09/21 04:45:31;;;;;;;4.20;2.80;;;9.30;99.90;;;;;;5110580;28;20030;-78
2022/09/21 04:47:57;;;;;;;5.65;2.67;;;9.30;99.90;;;;;;5112914;28;20092;-77
2022/09/21 04:50:22;;;;;;;8.70;3.10;;;9.20;99.90;;;;;;5113304;28;20047;-80
2022/09/21 04:53:01;;;;;;;5.82;2.90;;;9.20;99.90;;;;;;5114141;28;20023;-77
2022/09/21 04:55:27;;;;;;;6.70;2.80;;;9.20;99.90;;;;;;5110186;28;20098;-78
2022/09/21 04:57:53;;;;;;;4.65;2.70;;;9.20;99.90;;;;;;5110784;28;20096;-78
2022/09/21 05:00:19;;;;;;;12.38;3.28;;;9.20;99.90;;;;;;5109006;28;20023;-77
2022/09/21 05:02:44;;;;;;;8.50;3.30;;;9.20;99.90;;;;;;5107682;28;20028;-77
2022/09/21 05:05:10;;;;;;;10.63;3.20;;;9.20;99.90;;;;;;5107124;28;20123;-79
2022/09/21 05:07:36;;;;;;;6.60;3.38;;;9.30;99.90;;;;;;5072962;28;20042;-79
2022/09/21 05:10:01;;;;;;;8.55;3.38;;;9.30;99.90;;;;;;5102761;28;20020;-78
2022/09/21 05:12:28;;;;;;;9.80;3.50;;;9.30;99.90;;;;;;5103035;28;20024;-77
2022/09/21 05:14:54;;;;;;;8.50;3.20;;;9.30;99.90;;;;;;5102570;28;20157;-79
2022/09/21 05:17:21;;;;;;;10.20;3.13;;;9.40;99.90;;;;;;5100461;28;20024;-78
2022/09/21 05:19:48;;;;;;;8.38;3.30;;;9.50;99.90;;;;;;5103010;28;20058;-80
2022/09/21 05:22:14;;;;;;;6.57;2.85;;;9.50;99.90;;;;;;5123147;28;20047;-78
2022/09/21 05:24:40;;;;;;;6.20;2.85;;;9.60;99.90;;;;;;5088694;28;20054;-78
2022/09/21 05:27:06;;;;;;;7.47;3.33;;;9.60;99.90;;;;;;5103887;28;20028;-79
2022/09/21 05:29:32;;;;;;;11.05;3.22;;;9.70;99.90;;;;;;5105392;28;20028;-81
2022/09/21 05:32:05;;;;;;;6.30;2.65;;;9.80;99.90;;;;;;5128239;27;20008;-83
2022/09/21 05:34:50;;;;;;;13.63;3.53;;;9.90;99.90;;;;;;5116799;28;20020;-78
2022/09/21 05:37:24;;;;;;;9.45;3.35;;;9.90;99.90;;;;;;5125415;28;20039;-78
2022/09/21 05:39:50;;;;;;;9.68;2.90;;;10.00;99.90;;;;;;5119197;28;20038;-78
2022/09/21 05:42:16;;;;;;;10.43;3.15;;;10.10;99.90;;;;;;5120772;28;20055;-80
2022/09/21 05:44:43;;;;;;;7.97;3.17;;;10.30;99.90;;;;;;5119942;28;20024;-78
2022/09/21 05:47:39;;;;;;;11.23;2.50;;;10.30;99.90;;;;;;5101364;28;20141;-78
2022/09/21 05:50:34;;;;;;;11.88;2.95;;;10.50;99.90;;;;;;5100185;28;20535;-80
2022/09/21 05:53:15;;;;;;;4.60;2.67;;;10.60;99.90;;;;;;5147092;22;20048;-84
2022/09/21 05:55:59;;;;;;;8.50;2.53;;;10.70;99.90;;;;;;5126478;28;20047;-83
2022/09/21 05:58:44;;;;;;;9.33;2.53;;;10.80;99.90;;;;;;5106494;28;20024;-83
2022/09/21 06:01:30;;;;;;;5.07;2.80;;;11.00;99.90;;;;;;5112801;28;20032;-84
2022/09/21 06:03:57;;;;;;;5.68;2.60;;;11.20;99.90;;;;;;5097907;28;20341;-85
2022/09/21 06:06:22;;;;;;;12.55;3.00;;;11.40;99.90;;;;;;5101783;28;20024;-84
2022/09/21 06:08:53;;;;;;;8.10;2.90;;;11.50;99.90;;;;;;5101992;28;20093;-85
2022/09/21 06:11:19;;;;;;;7.10;2.70;;;11.60;99.90;;;;;;5103219;28;20021;-83
2022/09/21 06:13:45;;;;;;;6.78;2.30;;;11.70;99.90;;;;;;5100482;28;20023;-83
2022/09/21 06:16:10;;;;;;;5.72;2.58;;;12.00;99.90;;;;;;5101863;28;20047;-85
2022/09/21 06:18:41;;;;;;;10.20;2.33;;;12.20;99.90;;;;;;5100813;28;20027;-84
2022/09/21 06:21:07;;;;;;;6.70;2.88;;;12.40;99.90;;;;;;5091561;28;20037;-79
2022/09/21 06:23:33;;;;;;;12.30;2.63;;;12.40;99.90;;;;;;5090723;28;20024;-83
2022/09/21 06:25:59;;;;;;;8.80;2.42;;;12.50;99.90;;;;;;5088025;28;20050;-81
2022/09/21 06:28:26;;;;;;;6.05;2.40;;;12.60;99.90;;;;;;5089410;28;20024;-81
2022/09/21 06:30:54;;;;;;;7.22;2.58;;;12.70;99.90;;;;;;5089802;28;20032;-82
2022/09/21 06:33:22;;;;;;;7.90;3.40;;;12.70;99.90;;;;;;5087948;28;20048;-83
2022/09/21 06:35:57;;;;;;;8.20;2.92;;;12.70;99.90;;;;;;5081721;28;20028;-79
2022/09/21 06:38:24;;;;;;;7.60;3.33;;;12.80;99.90;;;;;;5080825;28;20037;-82
2022/09/21 06:40:50;;;;;;;8.05;2.60;;;12.70;99.90;;;;;;5080302;28;20032;-83
2022/09/21 06:43:16;;;;;;;4.65;2.60;;;12.50;99.90;;;;;;5078194;28;20033;-88
2022/09/21 06:45:42;;;;;;;5.85;2.78;;;12.40;99.90;;;;;;5078729;28;20383;-82
2022/09/21 06:48:09;;;;;;;8.40;2.85;;;12.30;99.90;;;;;;5079769;28;20043;-82
2022/09/21 06:50:35;;;;;;;7.13;2.85;;;12.20;99.90;;;;;;5080912;28;20021;-82
2022/09/21 06:53:02;;;;;;;5.95;2.60;;;12.10;99.90;;;;;;5083531;28;20118;-83
2022/09/21 06:55:28;;;;;;;7.47;2.70;;;12.10;99.90;;;;;;5087994;28;20023;-82
2022/09/21 06:58:04;;;;;;;7.10;2.67;;;12.00;99.90;;;;;;5082172;28;20084;-81
2022/09/21 07:00:31;;;;;;;6.03;3.00;;;12.00;99.90;;;;;;5081653;28;20032;-83
2022/09/21 07:02:57;;;;;;;6.22;3.15;;;12.10;99.90;;;;;;5065988;28;20476;-82
2022/09/21 07:05:22;;;;;;;6.95;2.88;;;12.10;99.90;;;;;;5090829;28;20020;-83
2022/09/21 07:07:48;;;;;;;6.18;2.50;;;12.10;99.90;;;;;;5087164;28;20041;-82
2022/09/21 07:10:14;;;;;;;5.20;2.65;;;12.20;99.90;;;;;;5082713;28;20545;-82
2022/09/21 07:12:40;;;;;;;6.47;2.97;;;12.10;99.90;;;;;;5084427;28;20032;-83
2022/09/21 07:15:09;;;;;;;6.07;2.85;;;12.10;99.90;;;;;;5083017;28;20028;-81
2022/09/21 07:17:36;;;;;;;9.82;2.90;;;12.20;99.90;;;;;;5083210;28;20012;-81
2022/09/21 07:20:03;;;;;;;6.57;2.95;;;12.30;99.90;;;;;;5084732;28;20020;-84
2022/09/21 07:22:32;;;;;;;4.75;3.33;;;12.50;99.90;;;;;;5084685;28;20376;-82
2022/09/21 07:24:58;;;;;;;5.82;3.03;;;12.70;99.90;;;;;;5087055;28;20025;-80
2022/09/21 07:27:26;;;;;;;13.38;3.33;;;12.80;99.90;;;;;;5092843;28;20089;-83
2022/09/21 07:29:52;;;;;;;7.03;2.90;;;12.80;99.90;;;;;;5092401;28;20029;-82
2022/09/21 07:32:18;;;;;;;5.15;3.13;;;12.80;99.90;;;;;;5089662;28;20112;-81
2022/09/21 07:34:45;;;;;;;5.43;3.38;;;12.80;99.90;;;;;;5086519;28;20021;-81
2022/09/21 07:37:11;;;;;;;4.43;3.05;;;12.80;99.90;;;;;;5083426;28;20060;-82
2022/09/21 07:39:37;;;;;;;5.82;3.30;;;12.70;99.90;;;;;;5083780;28;20032;-82
2022/09/21 07:42:04;;;;;;;5.90;3.97;;;12.90;99.90;;;;;;5083696;28;20031;-82
2022/09/21 07:44:30;;;;;;;9.38;3.85;;;13.20;99.90;;;;;;5082206;28;20070;-82
2022/09/21 07:46:56;;;;;;;8.02;3.53;;;13.40;99.90;;;;;;5063257;28;20085;-82
2022/09/21 07:49:22;;;;;;;4.63;2.92;;;13.50;99.90;;;;;;5083455;28;20024;-81
2022/09/21 07:51:48;;;;;;;5.43;3.53;;;13.70;99.90;;;;;;5088771;28;20028;-81
2022/09/21 07:54:16;;;;;;;9.35;3.50;;;13.80;99.90;;;;;;5088795;28;20423;-82
2022/09/21 07:59:04;;;;;;;6.80;3.17;;;13.80;99.90;;;;;;5092933;28;20029;-82
2022/09/21 07:59:31;;;;;;;5.22;2.90;;;13.90;99.90;;;;;;5093026;28;20136;-81
2022/09/21 08:01:57;;;;;;;5.47;3.10;;;13.90;99.90;;;;;;5091619;28;20031;-82
2022/09/21 08:04:23;;;;;;;7.15;3.00;;;13.90;99.90;;;;;;5091296;28;20041;-81
2022/09/21 08:06:48;;;;;;;6.38;3.45;;;14.00;99.90;;;;;;5088279;28;20031;-83
2022/09/21 08:09:15;;;;;;;6.38;3.20;;;14.20;99.90;;;;;;5087186;28;20033;-80
2022/09/21 08:11:43;;;;;;;4.53;3.10;;;14.40;99.90;;;;;;5066858;28;20024;-83
2022/09/21 08:14:09;;;;;;;5.03;3.00;;;14.90;99.90;;;;;;5085465;28;20119;-82
2022/09/21 08:16:36;;;;;;;4.05;2.35;;;15.10;99.90;;;;;;5093561;28;20021;-82
2022/09/21 08:19:03;;;;;;;4.72;3.00;;;15.20;99.90;;;;;;5083413;28;20037;-82
2022/09/21 08:21:29;;;;;;;7.07;3.05;;;15.40;99.90;;;;;;5080537;28;20036;-83
2022/09/21 08:23:56;;;;;;;5.47;2.95;;;15.70;99.90;;;;;;5081658;28;20032;-83
2022/09/21 08:26:23;;;;;;;9.35;2.80;;;16.00;99.90;;;;;;5082249;28;20085;-82
2022/09/21 08:28:51;;;;;;;7.93;2.92;;;16.20;99.90;;;;;;5079113;28;20401;-82
2022/09/21 08:31:19;;;;;;;6.25;2.90;;;16.00;99.90;;;;;;5083392;28;20027;-83
2022/09/21 08:33:46;;;;;;;11.93;2.67;;;16.00;99.90;;;;;;5082208;28;20032;-84
2022/09/21 08:36:12;;;;;;;5.68;2.60;;;15.90;99.90;;;;;;5082508;28;20357;-82
2022/09/21 08:38:39;;;;;;;4.65;2.78;;;15.60;99.90;;;;;;5091445;28;20075;-82
2022/09/21 08:41:36;;;;;;;5.75;2.70;;;15.40;99.90;;;;;;5085847;28;20060;-81
2022/09/21 08:44:10;;;;;;;3.75;2.60;;;15.10;99.90;;;;;;5067647;28;20550;-82
2022/09/21 08:46:37;;;;;;;6.10;2.50;;;15.10;99.90;;;;;;5082463;28;20033;-82
2022/09/21 08:49:15;;;;;;;3.35;2.13;;;15.10;99.90;;;;;;5080106;28;20062;-83
2022/09/21 08:51:51;;;;;;;6.75;2.33;;;15.00;99.90;;;;;;5080310;28;20037;-82
2022/09/21 08:54:45;;;;;;;7.57;2.80;;;15.20;99.90;;;;;;5079547;28;20035;-82
2022/09/21 08:57:15;;;;;;;7.15;2.58;;;15.90;99.90;;;;;;5080625;28;20032;-82
2022/09/21 08:59:45;;;;;;;6.93;2.30;;;16.90;99.90;;;;;;5084520;28;20052;-83
2022/09/21 09:02:40;;;;;;;10.35;3.00;;;16.90;99.90;;;;;;5092474;28;20353;-83
2022/09/21 09:05:32;;;;;;;3.33;2.38;;;16.60;99.90;;;;;;5091955;28;20081;-83
2022/09/21 09:08:36;;;;;;;3.72;2.60;;;16.50;99.90;;;;;;5078820;28;20104;-82
2022/09/21 09:11:17;;;;;;;5.50;2.33;;;16.50;99.90;;;;;;5081259;28;20020;-80
2022/09/21 09:13:55;;;;;;;3.88;2.88;;;16.50;99.90;;;;;;5086958;28;20016;-82
2022/09/21 09:16:42;;;;;;;7.22;2.72;;;16.50;99.90;;;;;;5091210;28;20036;-81
2022/09/21 09:19:27;;;;;;;3.45;2.28;;;16.40;99.90;;;;;;5089865;28;20025;-81
2022/09/21 09:21:55;;;;;;;5.35;2.78;;;16.40;99.90;;;;;;5088068;28;20484;-81
2022/09/21 09:25:05;;;;;;;2.40;2.20;;;16.40;99.90;;;;;;5088515;28;20032;-83
2022/09/21 09:27:40;;;;;;;5.65;2.35;;;16.20;99.90;;;;;;5089733;28;20119;-82
2022/09/21 09:30:22;;;;;;;4.40;2.45;;;16.20;99.90;;;;;;5091372;28;20044;-82
2022/09/21 09:33:19;;;;;;;2.97;2.30;;;16.30;99.90;;;;;;5089765;28;20094;-81
2022/09/21 09:36:03;;;;;;;6.28;2.42;;;16.20;99.90;;;;;;5091685;28;20025;-82
2022/09/21 09:38:50;;;;;;;6.60;2.60;;;16.20;99.90;;;;;;5090187;28;20077;-81
2022/09/21 09:41:33;;;;;;;3.90;2.20;;;16.10;99.90;;;;;;5084164;28;20107;-82
2022/09/21 09:44:05;;;;;;;4.05;2.53;;;16.40;99.90;;;;;;5078696;28;20029;-83
2022/09/21 09:46:59;;;;;;;3.22;2.28;;;16.70;99.90;;;;;;5081046;28;20055;-83
2022/09/21 09:49:33;;;;;;;4.55;2.22;;;16.80;99.90;;;;;;5089929;28;20021;-83
2022/09/21 09:51:59;;;;;;;3.42;2.25;;;16.70;99.90;;;;;;5082352;28;20032;-85
2022/09/21 09:54:26;;;;;;;6.20;2.30;;;17.00;99.90;;;;;;5083224;28;20582;-83
2022/09/21 09:56:54;;;;;;;9.30;2.50;;;18.00;99.90;;;;;;5083481;28;20024;-82
2022/09/21 09:59:35;;;;;;;4.97;2.58;;;18.60;99.90;;;;;;5080231;28;20028;-84
2022/09/21 10:02:17;;;;;;;8.30;1.92;;;18.90;99.90;;;;;;5079874;28;20061;-82
2022/09/21 10:05:07;;;;;;;3.83;1.95;;;18.90;99.90;;;;;;5083427;28;20043;-83
2022/09/21 10:07:42;;;;;;;4.80;1.80;;;20.40;98.00;;;;;;5084457;28;20040;-83
2022/09/21 10:10:33;;;;;;;1.98;1.63;;;22.60;94.70;;;;;;5085788;28;20058;-82
2022/09/21 10:13:23;;;;;;;3.25;1.52;;;24.50;90.80;;;;;;5089073;28;20084;-84
2022/09/21 10:15:53;;;;;;;4.00;1.70;;;25.30;87.60;;;;;;5086385;28;20040;-83
2022/09/21 10:18:23;;;;;;;5.25;1.75;;;24.60;86.00;;;;;;5082906;28;20032;-83
2022/09/21 10:21:01;;;;;;;4.05;1.80;;;23.60;87.60;;;;;;5088487;28;20132;-83
2022/09/21 10:23:29;;;;;;;7.57;1.90;;;21.90;89.50;;;;;;5092363;28;20032;-81
2022/09/21 10:26:08;;;;;;;2.53;1.55;;;20.40;92.20;;;;;;5090790;28;20118;-82
2022/09/21 10:28:35;;;;;;;5.55;1.75;;;19.60;92.90;;;;;;5088298;28;20453;-83
2022/09/21 10:31:08;;;;;;;3.72;1.75;;;19.20;93.90;;;;;;5080841;28;20066;-84
2022/09/21 10:33:47;;;;;;;1.92;1.33;;;18.80;94.40;;;;;;5080135;28;20028;-82
2022/09/21 10:36:33;;;;;;;4.00;1.50;;;18.30;94.30;;;;;;5084130;28;20036;-83
2022/09/21 10:39:19;;;;;;;2.35;1.20;;;18.20;94.80;;;;;;5092833;28;20036;-83
2022/09/21 10:42:01;;;;;;;4.72;1.40;;;18.30;93.50;;;;;;5086065;28;20024;-83
2022/09/21 10:44:40;;;;;;;2.10;1.35;;;18.40;94.10;;;;;;5088708;28;20024;-82
2022/09/21 10:47:34;;;;;;;4.22;1.25;;;20.40;92.80;;;;;;5084556;28;20107;-84
2022/09/21 10:50:04;;;;;;;2.20;1.58;;;24.00;88.50;;;;;;5060831;28;20048;-83
2022/09/21 10:52:42;;;;;;;3.00;1.05;;;26.60;82.50;;;;;;5084355;28;20105;-83
2022/09/21 10:55:17;;;;;;;3.35;1.13;;;28.50;74.50;;;;;;5098752;28;20028;-83
2022/09/21 10:57:44;;;;;;;2.72;1.00;;;29.40;71.30;;;;;;5099402;28;20024;-83
2022/09/21 11:00:34;;;;;;;1.33;1.00;;;29.30;67.30;;;;;;5098332;28;20024;-83
2022/09/21 11:03:20;;;;;;;2.90;1.13;;;27.30;67.90;;;;;;5096904;28;20038;-83
2022/09/21 11:05:49;;;;;;;0.88;0.50;;;25.40;70.70;;;;;;5090509;28;20561;-82
2022/09/21 11:08:22;;;;;;;1.30;0.70;;;24.10;71.90;;;;;;5088322;28;20039;-82
2022/09/21 11:11:10;;;;;;;1.85;0.80;;;24.60;71.60;;;;;;5088006;28;20029;-82
2022/09/21 11:13:59;;;;;;;1.67;0.70;;;25.70;70.90;;;;;;5087075;28;20119;-81
2022/09/21 11:16:40;;;;;;;1.33;0.60;;;27.70;68.00;;;;;;5095682;28;20083;-83
2022/09/21 11:19:16;;;;;;;1.25;0.77;;;27.60;65.10;;;;;;5088902;28;20084;-83
2022/09/21 11:22:05;;;;;;;0.63;0.47;;;27.80;65.50;;;;;;5088543;28;20036;-83
2022/09/21 11:24:50;;;;;;;1.30;0.52;;;28.70;63.50;;;;;;5087077;28;20160;-84
2022/09/21 11:27:24;;;;;;;1.77;0.70;;;29.60;61.40;;;;;;5087339;28;20511;-83
2022/09/21 11:30:09;;;;;;;0.73;0.50;;;29.70;60.20;;;;;;5082297;28;20029;-83
2022/09/21 11:32:44;;;;;;;;;;;29.80;58.70;;;;;;5082480;28;20047;-83
2022/09/21 11:35:15;;;;;;;1.30;0.50;;;29.90;58.40;;;;;;5082822;28;19919;-83
2022/09/21 11:38:03;;;;;;;0.77;0.65;;;30.50;58.10;;;;;;5084902;28;20099;-83
2022/09/21 11:40:32;;;;;;;3.10;0.70;;;30.20;57.90;;;;;;5082831;28;20043;-83
2022/09/21 11:43:39;;;;;;;0.70;0.50;;;29.60;58.00;;;;;;5082076;28;20017;-81
2022/09/21 11:46:18;;;;;;;2.28;0.68;;;30.40;58.10;;;;;;5075766;28;20078;-83
2022/09/21 11:49:01;;;;;;;1.83;0.60;;;31.80;56.20;;;;;;5092470;28;20471;-83
2022/09/21 11:54:24;;;;;;;2.95;0.68;;;33.10;54.50;;;;;;5150970;22;20055;-85
2022/09/21 11:57:30;;;;;;;0.55;0.55;;;33.90;53.50;;;;;;5117246;27;20098;-85
2022/09/21 12:00:10;;;;;;;6.10;0.57;;;33.50;50.70;;;;;;5100283;28;20060;-84
2022/09/21 12:03:01;;;;;;;1.17;0.60;;;31.60;52.40;;;;;;5127573;28;20035;-87
2022/09/21 12:05:53;;;;;;;2.00;0.90;;;30.50;53.30;;;;;;5118875;28;20076;-84
2022/09/21 12:08:19;;;;;;;2.35;1.17;;;30.00;54.90;;;;;;5085082;28;20028;-82
2022/09/21 12:11:12;;;;;;;2.65;1.15;;;28.20;57.50;;;;;;5120082;28;20054;-85
2022/09/21 12:14:14;;;;;;;1.88;1.30;;;28.00;58.60;;;;;;5102340;28;20055;-84
2022/09/21 12:17:01;;;;;;;2.25;1.10;;;28.30;57.90;;;;;;5119561;28;20048;-84
2022/09/21 12:20:02;;;;;;;2.05;1.08;;;30.00;56.40;;;;;;5102286;28;20111;-84
2022/09/21 12:22:39;;;;;;;2.03;1.20;;;30.20;55.80;;;;;;5119903;28;20091;-83
2022/09/21 12:25:25;;;;;;;3.83;1.10;;;30.60;55.60;;;;;;5102043;28;20031;-83
2022/09/21 12:28:01;;;;;;;1.25;1.10;;;29.80;56.20;;;;;;5102168;28;20066;-84
2022/09/21 12:30:30;;;;;;;1.98;1.10;;;30.70;55.70;;;;;;5102381;28;20083;-84
2022/09/21 12:33:02;;;;;;;1.35;1.15;;;31.30;54.40;;;;;;5102125;28;20031;-84
2022/09/21 12:35:42;;;;;;;1.85;1.08;;;30.80;54.90;;;;;;5119723;28;20016;-84
2022/09/21 12:38:18;;;;;;;1.75;1.08;;;29.80;56.00;;;;;;5119259;28;20126;-84
2022/09/21 12:40:57;;;;;;;4.13;0.95;;;28.00;56.20;;;;;;5119697;28;20049;-84
2022/09/21 12:43:35;;;;;;;1.67;1.10;;;26.60;58.00;;;;;;5119537;28;20058;-84
2022/09/21 12:46:13;;;;;;;4.53;1.30;;;26.10;59.30;;;;;;5119571;28;20028;-83
2022/09/21 12:48:41;;;;;;;3.33;1.23;;;26.40;60.10;;;;;;5101723;28;20036;-83
2022/09/21 12:51:33;;;;;;;3.97;1.75;;;28.10;59.00;;;;;;5101894;28;20008;-83
2022/09/21 12:54:23;;;;;;;2.50;1.13;;;29.90;57.50;;;;;;5101969;28;20048;-84
2022/09/21 12:57:59;;;;;;;2.78;1.20;;;30.50;56.70;;;;;;5119203;28;20054;-85
2022/09/21 13:00:33;;;;;;;2.10;1.60;;;32.30;54.80;;;;;;4946394;28;20023;-86
2022/09/21 13:03:23;;;;;;;2.25;1.40;;;32.60;54.20;;;;;;5104444;28;20046;-84
2022/09/21 13:05:53;;;;;;;3.80;1.25;;;33.40;53.40;;;;;;5119135;28;20024;-84
2022/09/21 13:08:30;;;;;;;3.17;1.20;;;32.90;51.80;;;;;;5118951;28;20027;-84
2022/09/21 13:11:03;;;;;;;1.45;1.30;;;32.80;51.90;;;;;;5119179;28;20040;-83
2022/09/21 13:13:50;;;;;;;2.65;1.20;;;33.20;52.30;;;;;;5118857;28;20072;-83
2022/09/21 13:16:30;;;;;;;2.63;1.10;;;33.40;52.00;;;;;;5100907;28;20043;-84
2022/09/21 13:18:58;;;;;;;3.08;1.10;;;33.30;52.10;;;;;;5118195;28;20065;-84
2022/09/21 13:21:28;;;;;;;1.60;1.15;;;32.80;52.30;;;;;;5100840;28;20030;-83
2022/09/21 13:24:01;;;;;;;1.70;1.25;;;33.20;51.60;;;;;;5118686;28;20024;-84